Time,TemperatureF,DewpointF,PressureIn,WindDirection,WindDirectionDegrees,WindSpeedMPH,WindSpeedGustMPH,Humidity,HourlyPrecipIn,Conditions,Clouds,dailyrainin,SoftwareType,DateUTC
2013-11-10 00:01:00,43.5,33.3,30.02,SE,126,0.0,0.0,67,0.00,OVC,,0.00,WeatherDisplay:10.37,2013-11-10 05:01:00,
2013-11-10 00:02:00,43.5,33.3,30.02,SE,126,0.0,0.0,67,0.00,OVC,,0.00,WeatherDisplay:10.37,2013-11-10 05:02:00,
2013-11-10 00:05:00,43.3,33.1,30.02,SE,126,0.0,0.0,67,0.00,OVC,,0.00,WeatherDisplay:10.37,2013-11-10 05:05:00,
2013-11-10 00:07:00,43.5,33.7,30.01,SE,126,0.0,0.0,68,0.00,OVC,,0.00,WeatherDisplay:10.37,2013-11-10 05:07:00,
2013-11-10 00:08:00,43.5,33.7,30.01,SE,126,0.0,0.0,68,0.00,OVC,,0.00,WeatherDisplay:10.37,2013-11-10 05:08:00,
2013-11-10 00:13:00,43.4,33.9,30.01,SE,126,0.0,0.0,69,0.00,OVC,,0.00,WeatherDisplay:10.37,2013-11-10 05:13:00,
2013-11-10 00:18:00,43.3,33.5,30.01,SE,126,0.0,0.0,68,0.00,OVC,,0.00,WeatherDisplay:10.37,2013-11-10 05:18:00,
2013-11-10 00:23:00,43.3,33.5,30.00,SE,126,0.0,0.0,68,0.00,OVC,,0.00,WeatherDisplay:10.37,2013-11-10 05:23:00,
2013-11-10 00:28:00,43.3,33.5,30.00,SE,126,0.0,0.0,68,0.00,OVC,,0.00,WeatherDisplay:10.37,2013-11-10 05:28:00,
2013-11-10 00:33:00,43.4,33.6,30.00,SE,126,0.0,0.0,68,0.00,OVC,,0.00,WeatherDisplay:10.37,2013-11-10 05:33:00,
2013-11-10 00:38:00,43.6,34.1,30.00,SE,141,0.0,0.0,69,0.00,OVC,,0.00,WeatherDisplay:10.37,2013-11-10 05:38:00,
2013-11-10 00:43:00,43.7,33.9,30.00,SW,219,0.0,0.0,68,0.00,OVC,,0.00,WeatherDisplay:10.37,2013-11-10 05:43:00,
2013-11-10 00:48:00,43.6,33.8,29.99,WNW,282,6.0,6.0,68,0.00,OVC,,0.00,WeatherDisplay:10.37,2013-11-10 05:48:00,
2013-11-10 00:53:00,43.9,34.4,29.99,West,268,0.0,0.0,69,0.00,OVC,,0.00,WeatherDisplay:10.37,2013-11-10 05:53:00,
2013-11-10 00:58:00,44.0,34.5,29.99,West,268,0.0,0.0,69,0.00,OVC,,0.00,WeatherDisplay:10.37,2013-11-10 05:58:00,
2013-11-10 01:03:00,44.1,34.6,29.98,SW,226,4.8,4.8,69,0.00,OVC,,0.00,WeatherDisplay:10.37,2013-11-10 06:03:00,
2013-11-10 01:08:00,44.0,34.5,29.98,SW,226,0.0,0.0,69,0.00,OVC,,0.00,WeatherDisplay:10.37,2013-11-10 06:08:00,
2013-11-10 01:13:00,44.0,34.5,29.98,SW,226,0.0,0.0,69,0.00,OVC,,0.00,WeatherDisplay:10.37,2013-11-10 06:13:00,
2013-11-10 01:18:00,44.1,35.0,29.97,SW,226,0.0,0.0,70,0.00,OVC,,0.00,WeatherDisplay:10.37,2013-11-10 06:18:00,
2013-11-10 01:23:00,44.2,35.4,29.97,WSW,254,0.0,0.0,71,0.00,OVC,,0.00,WeatherDisplay:10.37,2013-11-10 06:23:00,
2013-11-10 01:28:00,44.2,35.4,29.97,WSW,254,0.0,0.0,71,0.00,OVC,,0.00,WeatherDisplay:10.37,2013-11-10 06:28:00,
2013-11-10 01:33:00,44.1,35.0,29.97,South,188,0.0,0.0,70,0.00,OVC,,0.00,WeatherDisplay:10.37,2013-11-10 06:33:00,
2013-11-10 01:38:00,44.3,34.8,29.97,South,188,0.0,0.0,69,0.00,OVC,,0.00,WeatherDisplay:10.37,2013-11-10 06:38:00,
2013-11-10 01:43:00,44.2,35.1,29.97,South,188,0.0,0.0,70,0.00,OVC,,0.00,WeatherDisplay:10.37,2013-11-10 06:43:00,
2013-11-10 01:48:00,44.3,35.2,29.97,South,188,0.0,0.0,70,0.00,OVC,,0.00,WeatherDisplay:10.37,2013-11-10 06:48:00,
2013-11-10 01:53:00,44.1,35.3,29.96,South,188,0.0,0.0,71,0.00,OVC,,0.00,WeatherDisplay:10.37,2013-11-10 06:53:00,
2013-11-10 01:58:00,44.3,35.2,29.96,South,188,0.0,0.0,70,0.00,OVC,,0.00,WeatherDisplay:10.37,2013-11-10 06:58:00,
2013-11-10 02:03:00,44.3,35.5,29.96,South,188,0.0,0.0,71,0.00,OVC,,0.00,WeatherDisplay:10.37,2013-11-10 07:03:00,
2013-11-10 02:08:00,44.0,35.2,29.96,South,188,0.0,0.0,71,0.00,OVC,,0.00,WeatherDisplay:10.37,2013-11-10 07:08:00,
2013-11-10 02:13:00,44.2,35.4,29.96,South,188,0.0,0.0,71,0.00,OVC,,0.00,WeatherDisplay:10.37,2013-11-10 07:13:00,
2013-11-10 02:18:00,44.2,35.4,29.96,South,188,0.0,0.0,71,0.00,OVC,,0.00,WeatherDisplay:10.37,2013-11-10 07:18:00,
2013-11-10 02:23:00,44.1,35.3,29.96,South,188,0.0,0.0,71,0.00,OVC,,0.00,WeatherDisplay:10.37,2013-11-10 07:23:00,
2013-11-10 02:28:00,44.0,35.9,29.95,South,188,0.0,0.0,73,0.00,OVC,,0.00,WeatherDisplay:10.37,2013-11-10 07:28:00,
2013-11-10 02:33:00,44.2,35.8,29.95,South,188,0.0,0.0,72,0.00,OVC,,0.00,WeatherDisplay:10.37,2013-11-10 07:33:00,
2013-11-10 02:38:00,44.1,35.7,29.95,South,188,0.0,0.0,72,0.00,OVC,,0.00,WeatherDisplay:10.37,2013-11-10 07:38:00,
2013-11-10 02:43:00,44.0,35.9,29.95,South,188,0.0,0.0,73,0.00,OVC,,0.00,WeatherDisplay:10.37,2013-11-10 07:43:00,
2013-11-10 02:48:00,44.1,35.7,29.95,South,188,0.0,0.0,72,0.00,OVC,,0.00,WeatherDisplay:10.37,2013-11-10 07:48:00,
2013-11-10 02:53:00,44.0,35.6,29.95,South,188,0.0,0.0,72,0.00,OVC,,0.00,WeatherDisplay:10.37,2013-11-10 07:53:00,
2013-11-10 02:58:00,44.1,36.0,29.95,South,188,0.0,0.0,73,0.00,OVC,,0.00,WeatherDisplay:10.37,2013-11-10 07:58:00,
2013-11-10 03:03:00,44.0,36.3,29.95,South,188,0.0,0.0,74,0.00,OVC,,0.00,WeatherDisplay:10.37,2013-11-10 08:03:00,
2013-11-10 03:08:00,43.9,36.2,29.94,SE,140,4.6,4.6,74,0.00,OVC,,0.00,WeatherDisplay:10.37,2013-11-10 08:08:00,
2013-11-10 03:13:00,43.9,36.2,29.94,SE,140,0.0,0.0,74,0.00,OVC,,0.00,WeatherDisplay:10.37,2013-11-10 08:13:00,
2013-11-10 03:18:00,43.9,36.2,29.93,SE,140,0.0,0.0,74,0.00,OVC,,0.00,WeatherDisplay:10.37,2013-11-10 08:18:00,
2013-11-10 03:23:00,43.9,36.2,29.94,SE,140,0.0,0.0,74,0.00,OVC,,0.00,WeatherDisplay:10.37,2013-11-10 08:23:00,
2013-11-10 03:28:00,43.9,36.2,29.93,SE,140,0.0,0.0,74,0.00,OVC,,0.00,WeatherDisplay:10.37,2013-11-10 08:28:00,
2013-11-10 03:33:00,43.9,36.2,29.93,SE,140,0.0,0.0,74,0.00,OVC,,0.00,WeatherDisplay:10.37,2013-11-10 08:33:00,
2013-11-10 03:38:00,43.9,36.2,29.93,SE,140,0.0,0.0,74,0.00,OVC,,0.00,WeatherDisplay:10.37,2013-11-10 08:38:00,
2013-11-10 03:43:00,43.9,36.2,29.93,SE,140,0.0,0.0,74,0.00,OVC,,0.00,WeatherDisplay:10.37,2013-11-10 08:43:00,
2013-11-10 03:48:00,43.8,36.4,29.93,SE,140,0.0,0.0,75,0.00,OVC,,0.00,WeatherDisplay:10.37,2013-11-10 08:48:00,
2013-11-10 03:53:00,43.7,36.3,29.93,SW,223,0.0,0.0,75,0.00,OVC,,0.00,WeatherDisplay:10.37,2013-11-10 08:53:00,
2013-11-10 03:58:00,43.6,36.2,29.93,SW,223,0.0,0.0,75,0.00,OVC,,0.00,WeatherDisplay:10.37,2013-11-10 08:58:00,
2013-11-10 04:03:00,43.4,36.0,29.93,SW,223,0.0,0.0,75,0.00,OVC,,0.00,WeatherDisplay:10.37,2013-11-10 09:03:00,
2013-11-10 04:08:00,43.3,35.9,29.93,SW,223,0.0,0.0,75,0.00,OVC,,0.00,WeatherDisplay:10.37,2013-11-10 09:08:00,
2013-11-10 04:13:00,43.5,36.1,29.93,SW,223,0.0,0.0,75,0.00,OVC,,0.00,WeatherDisplay:10.37,2013-11-10 09:13:00,
2013-11-10 04:18:00,43.4,36.4,29.93,SW,222,4.7,4.7,76,0.00,OVC,,0.00,WeatherDisplay:10.37,2013-11-10 09:18:00,
2013-11-10 04:23:00,43.2,36.2,29.93,SW,230,0.0,0.0,76,0.00,OVC,,0.00,WeatherDisplay:10.37,2013-11-10 09:23:00,
2013-11-10 04:28:00,43.2,36.2,29.93,SW,230,0.0,0.0,76,0.00,OVC,,0.00,WeatherDisplay:10.37,2013-11-10 09:28:00,
2013-11-10 04:33:00,43.3,36.3,29.93,SW,230,0.0,0.0,76,0.00,OVC,,0.00,WeatherDisplay:10.37,2013-11-10 09:33:00,
2013-11-10 04:38:00,43.1,36.1,29.93,SW,230,0.0,0.0,76,0.00,OVC,,0.00,WeatherDisplay:10.37,2013-11-10 09:38:00,
2013-11-10 04:43:00,43.2,36.2,29.93,SW,230,0.0,0.0,76,0.00,OVC,,0.00,WeatherDisplay:10.37,2013-11-10 09:43:00,
2013-11-10 04:48:00,43.2,36.2,29.93,SW,230,0.0,0.0,76,0.00,OVC,,0.00,WeatherDisplay:10.37,2013-11-10 09:48:00,
2013-11-10 04:53:00,43.0,36.0,29.93,SW,230,0.0,0.0,76,0.00,OVC,,0.00,WeatherDisplay:10.37,2013-11-10 09:53:00,
2013-11-10 04:58:00,43.0,36.0,29.93,SW,230,0.0,0.0,76,0.00,OVC,,0.00,WeatherDisplay:10.37,2013-11-10 09:58:00,
2013-11-10 05:03:00,43.0,36.3,29.93,SW,230,0.0,0.0,77,0.00,OVC,,0.00,WeatherDisplay:10.37,2013-11-10 10:03:00,
2013-11-10 05:08:00,43.1,36.4,29.93,SW,230,0.0,0.0,77,0.00,OVC,,0.00,WeatherDisplay:10.37,2013-11-10 10:08:00,
2013-11-10 05:13:00,43.0,36.3,29.93,SW,230,0.0,0.0,77,0.00,OVC,,0.00,WeatherDisplay:10.37,2013-11-10 10:13:00,
2013-11-10 05:18:00,42.8,36.1,29.93,SW,230,0.0,0.0,77,0.00,OVC,,0.00,WeatherDisplay:10.37,2013-11-10 10:18:00,
2013-11-10 05:23:00,42.9,36.2,29.92,SW,230,0.0,0.0,77,0.00,OVC,,0.00,WeatherDisplay:10.37,2013-11-10 10:23:00,
2013-11-10 05:28:00,43.0,36.3,29.92,SW,230,0.0,0.0,77,0.00,OVC,,0.00,WeatherDisplay:10.37,2013-11-10 10:28:00,
2013-11-10 05:33:00,43.0,36.3,29.92,SW,230,0.0,0.0,77,0.00,OVC,,0.00,WeatherDisplay:10.37,2013-11-10 10:33:00,
2013-11-10 05:38:00,43.0,36.3,29.92,SW,230,0.0,0.0,77,0.00,OVC,,0.00,WeatherDisplay:10.37,2013-11-10 10:38:00,
2013-11-10 05:43:00,42.9,36.2,29.92,SW,230,0.0,0.0,77,0.00,OVC,,0.00,WeatherDisplay:10.37,2013-11-10 10:43:00,
2013-11-10 05:44:00,42.9,36.2,29.92,SW,230,0.0,0.0,77,0.00,OVC,,0.00,WeatherDisplay:10.37,2013-11-10 10:44:00,
2013-11-10 05:49:00,42.9,36.6,29.92,SW,230,0.0,0.0,78,0.00,OVC,,0.00,WeatherDisplay:10.37,2013-11-10 10:49:00,
2013-11-10 05:54:00,43.1,36.7,29.92,SW,230,0.0,0.0,78,0.00,OVC,,0.00,WeatherDisplay:10.37,2013-11-10 10:54:00,
2013-11-10 05:59:00,43.1,37.1,29.92,SW,230,0.0,0.0,79,0.00,OVC,,0.00,WeatherDisplay:10.37,2013-11-10 10:59:00,
2013-11-10 06:04:00,43.1,37.4,29.92,SW,230,0.0,0.0,80,0.00,OVC,,0.00,WeatherDisplay:10.37,2013-11-10 11:04:00,
2013-11-10 06:09:00,42.7,36.7,29.92,SW,230,0.0,0.0,79,0.00,OVC,,0.00,WeatherDisplay:10.37,2013-11-10 11:09:00,
2013-11-10 06:14:00,42.6,36.6,29.92,SW,230,0.0,0.0,79,0.00,OVC,,0.00,WeatherDisplay:10.37,2013-11-10 11:14:00,
2013-11-10 06:19:00,42.7,36.7,29.92,SW,230,0.0,0.0,79,0.00,OVC,,0.00,WeatherDisplay:10.37,2013-11-10 11:19:00,
2013-11-10 06:24:00,42.6,36.6,29.92,SW,230,0.0,0.0,79,0.00,OVC,,0.00,WeatherDisplay:10.37,2013-11-10 11:24:00,
2013-11-10 06:29:00,42.7,36.7,29.92,SW,230,0.0,0.0,79,0.00,OVC,,0.00,WeatherDisplay:10.37,2013-11-10 11:29:00,
2013-11-10 06:34:00,42.5,36.5,29.92,SW,230,0.0,0.0,79,0.00,OVC,,0.00,WeatherDisplay:10.37,2013-11-10 11:34:00,
2013-11-10 06:39:00,42.5,36.5,29.92,SW,230,0.0,0.0,79,0.00,OVC,,0.00,WeatherDisplay:10.37,2013-11-10 11:39:00,
2013-11-10 06:44:00,42.5,36.8,29.92,SW,230,0.0,0.0,80,0.00,OVC,,0.00,WeatherDisplay:10.37,2013-11-10 11:44:00,
2013-11-10 06:49:00,42.6,36.9,29.91,SW,230,0.0,0.0,80,0.00,OVC,,0.00,WeatherDisplay:10.37,2013-11-10 11:49:00,
2013-11-10 06:54:00,42.4,36.7,29.92,SW,230,0.0,0.0,80,0.00,OVC,,0.00,WeatherDisplay:10.37,2013-11-10 11:54:00,
2013-11-10 06:59:00,42.3,36.6,29.92,SW,230,0.0,0.0,80,0.00,OVC,,0.00,WeatherDisplay:10.37,2013-11-10 11:59:00,
2013-11-10 07:04:00,42.3,36.6,29.92,SW,230,0.0,0.0,80,0.00,OVC,,0.00,WeatherDisplay:10.37,2013-11-10 12:04:00,
2013-11-10 07:09:00,42.4,36.7,29.92,SW,230,0.0,0.0,80,0.00,OVC,,0.00,WeatherDisplay:10.37,2013-11-10 12:09:00,
2013-11-10 07:14:00,42.5,36.8,29.92,SW,230,0.0,0.0,80,0.00,OVC,,0.00,WeatherDisplay:10.37,2013-11-10 12:14:00,
2013-11-10 07:19:00,42.7,37.0,29.91,SW,230,0.0,0.0,80,0.00,OVC,,0.00,WeatherDisplay:10.37,2013-11-10 12:19:00,
2013-11-10 07:24:00,42.7,37.0,29.92,SW,230,0.0,0.0,80,0.00,OVC,,0.00,WeatherDisplay:10.37,2013-11-10 12:24:00,
2013-11-10 07:29:00,42.5,36.8,29.92,SW,230,0.0,0.0,80,0.00,OVC,,0.00,WeatherDisplay:10.37,2013-11-10 12:29:00,
2013-11-10 07:34:00,42.6,36.9,29.92,SW,230,0.0,0.0,80,0.00,OVC,,0.00,WeatherDisplay:10.37,2013-11-10 12:34:00,
2013-11-10 07:39:00,42.7,36.7,29.91,SW,230,0.0,0.0,79,0.00,OVC,,0.00,WeatherDisplay:10.37,2013-11-10 12:39:00,
2013-11-10 07:44:00,42.7,36.7,29.91,SW,230,0.0,0.0,79,0.00,OVC,,0.00,WeatherDisplay:10.37,2013-11-10 12:44:00,
2013-11-10 07:49:00,42.7,36.7,29.91,SW,230,0.0,0.0,79,0.00,OVC,,0.00,WeatherDisplay:10.37,2013-11-10 12:49:00,
2013-11-10 07:54:00,42.5,36.5,29.91,SW,230,0.0,0.0,79,0.00,OVC,,0.00,WeatherDisplay:10.37,2013-11-10 12:54:00,
2013-11-10 07:59:00,42.4,36.4,29.91,SW,230,0.0,0.0,79,0.00,OVC,,0.00,WeatherDisplay:10.37,2013-11-10 12:59:00,
2013-11-10 08:04:00,42.5,36.8,29.91,SW,230,0.0,0.0,80,0.00,OVC,,0.00,WeatherDisplay:10.37,2013-11-10 13:04:00,
2013-11-10 08:09:00,42.4,36.7,29.91,SW,230,0.0,0.0,80,0.00,OVC,,0.00,WeatherDisplay:10.37,2013-11-10 13:09:00,
2013-11-10 08:14:00,42.2,36.5,29.91,SW,230,0.0,0.0,80,0.00,OVC,,0.00,WeatherDisplay:10.37,2013-11-10 13:14:00,
2013-11-10 08:19:00,42.6,36.9,29.91,SW,230,0.0,0.0,80,0.00,OVC,,0.00,WeatherDisplay:10.37,2013-11-10 13:19:00,
2013-11-10 08:24:00,43.0,37.3,29.90,SW,230,0.0,0.0,80,0.00,OVC,,0.00,WeatherDisplay:10.37,2013-11-10 13:24:00,
2013-11-10 08:29:00,43.5,37.8,29.90,SW,230,0.0,0.0,80,0.00,OVC,,0.00,WeatherDisplay:10.37,2013-11-10 13:29:00,
2013-11-10 08:34:00,43.7,37.3,29.90,SW,230,0.0,0.0,78,0.00,OVC,,0.00,WeatherDisplay:10.37,2013-11-10 13:34:00,
2013-11-10 08:39:00,44.2,37.8,29.90,SW,230,0.0,0.0,78,0.00,OVC,,0.00,WeatherDisplay:10.37,2013-11-10 13:39:00,
2013-11-10 08:44:00,44.9,38.8,29.90,SW,230,0.0,0.0,79,0.00,OVC,,0.00,WeatherDisplay:10.37,2013-11-10 13:44:00,
2013-11-10 08:49:00,45.8,39.4,29.90,SW,230,0.0,0.0,78,0.00,OVC,,0.00,WeatherDisplay:10.37,2013-11-10 13:49:00,
2013-11-10 08:54:00,46.3,38.2,29.89,NNW,342,2.3,2.3,73,0.00,OVC,,0.00,WeatherDisplay:10.37,2013-11-10 13:54:00,
2013-11-10 08:59:00,46.9,38.4,29.88,ENE,62,3.5,3.5,72,0.00,OVC,,0.00,WeatherDisplay:10.37,2013-11-10 13:59:00,
2013-11-10 09:04:00,47.3,38.0,29.88,East,83,2.9,2.9,70,0.00,CLR,,0.00,WeatherDisplay:10.37,2013-11-10 14:04:00,
2013-11-10 09:09:00,47.6,38.3,29.89,SSE,154,3.7,3.7,70,0.00,CLR,,0.00,WeatherDisplay:10.37,2013-11-10 14:09:00,
2013-11-10 09:14:00,48.0,38.7,29.89,North,7,0.0,0.0,70,0.00,CLR,,0.00,WeatherDisplay:10.37,2013-11-10 14:14:00,
2013-11-10 09:19:00,48.0,36.8,29.88,NNE,24,6.9,6.9,65,0.00,CLR,,0.00,WeatherDisplay:10.37,2013-11-10 14:19:00,
2013-11-10 09:24:00,48.6,36.6,29.87,NW,326,10.4,10.4,63,0.00,CLR,,0.00,WeatherDisplay:10.37,2013-11-10 14:24:00,
2013-11-10 09:29:00,49.4,37.8,29.87,NW,318,6.0,6.0,64,0.00,CLR,,0.00,WeatherDisplay:10.37,2013-11-10 14:29:00,
2013-11-10 09:34:00,50.1,36.8,29.87,NW,315,12.7,12.7,60,0.00,CLR,,0.00,WeatherDisplay:10.37,2013-11-10 14:34:00,
2013-11-10 09:39:00,50.5,36.7,29.86,West,277,15.0,15.0,59,0.00,CLR,,0.00,WeatherDisplay:10.37,2013-11-10 14:39:00,
2013-11-10 09:44:00,50.7,36.9,29.85,West,275,16.1,16.1,59,0.00,CLR,,0.00,WeatherDisplay:10.37,2013-11-10 14:44:00,
2013-11-10 09:49:00,51.3,36.6,29.85,WNW,287,17.6,17.6,57,0.00,CLR,,0.00,WeatherDisplay:10.37,2013-11-10 14:49:00,
2013-11-10 09:54:00,51.6,36.4,29.85,NW,323,18.3,18.3,56,0.00,CLR,,0.00,WeatherDisplay:10.37,2013-11-10 14:54:00,
2013-11-10 09:59:00,52.1,36.9,29.84,NNW,337,18.4,18.4,56,0.00,CLR,,0.00,WeatherDisplay:10.37,2013-11-10 14:59:00,
2013-11-10 10:04:00,52.3,37.1,29.84,WNW,292,16.1,16.1,56,0.00,CLR,,0.00,WeatherDisplay:10.37,2013-11-10 15:04:00,
2013-11-10 10:09:00,52.5,37.3,29.83,West,277,16.1,16.1,56,0.00,CLR,,0.00,WeatherDisplay:10.37,2013-11-10 15:09:00,
2013-11-10 10:14:00,52.7,37.0,29.84,West,281,18.2,18.2,55,0.00,CLR,,0.00,WeatherDisplay:10.37,2013-11-10 15:14:00,
2013-11-10 10:19:00,53.2,37.5,29.83,WSW,248,15.9,15.9,55,0.00,CLR,,0.00,WeatherDisplay:10.37,2013-11-10 15:19:00,
2013-11-10 10:24:00,53.5,37.3,29.83,West,278,23.1,23.1,54,0.00,CLR,,0.00,WeatherDisplay:10.37,2013-11-10 15:24:00,
2013-11-10 10:29:00,53.6,37.9,29.83,NNW,328,15.4,15.4,55,0.00,CLR,,0.00,WeatherDisplay:10.37,2013-11-10 15:29:00,
2013-11-10 10:34:00,53.8,37.6,29.82,West,278,13.6,13.6,54,0.00,CLR,,0.00,WeatherDisplay:10.37,2013-11-10 15:34:00,
2013-11-10 10:39:00,53.9,38.1,29.83,WNW,295,15.0,15.0,55,0.00,CLR,,0.00,WeatherDisplay:10.37,2013-11-10 15:39:00,
2013-11-10 10:44:00,53.9,37.2,29.82,West,265,23.0,23.0,53,0.00,CLR,,0.00,WeatherDisplay:10.37,2013-11-10 15:44:00,
2013-11-10 10:49:00,53.9,37.2,29.82,West,270,22.9,22.9,53,0.00,CLR,,0.00,WeatherDisplay:10.37,2013-11-10 15:49:00,
2013-11-10 10:54:00,54.2,37.9,29.81,WSW,243,15.2,15.2,54,0.00,CLR,,0.00,WeatherDisplay:10.37,2013-11-10 15:54:00,
2013-11-10 10:59:00,54.2,37.5,29.82,WSW,254,20.8,20.8,53,0.00,CLR,,0.00,WeatherDisplay:10.37,2013-11-10 15:59:00,
2013-11-10 11:04:00,54.2,37.0,29.82,West,280,17.7,17.7,52,0.00,SCT,,0.00,WeatherDisplay:10.37,2013-11-10 16:04:00,
2013-11-10 11:09:00,54.5,37.7,29.81,West,261,23.1,23.1,53,0.00,SCT,,0.00,WeatherDisplay:10.37,2013-11-10 16:09:00,
2013-11-10 11:14:00,54.5,37.7,29.81,WSW,246,17.3,17.3,53,0.00,SCT,,0.00,WeatherDisplay:10.37,2013-11-10 16:14:00,
2013-11-10 11:19:00,54.5,37.7,29.80,West,264,19.6,19.6,53,0.00,SCT,,0.00,WeatherDisplay:10.37,2013-11-10 16:19:00,
2013-11-10 11:24:00,54.8,38.0,29.80,WNW,287,18.4,18.4,53,0.00,SCT,,0.00,WeatherDisplay:10.37,2013-11-10 16:24:00,
2013-11-10 11:29:00,55.2,37.9,29.80,West,263,18.4,18.4,52,0.00,SCT,,0.00,WeatherDisplay:10.37,2013-11-10 16:29:00,
2013-11-10 11:34:00,55.6,37.8,29.80,SW,229,12.7,12.7,51,0.00,BKN,,0.00,WeatherDisplay:10.37,2013-11-10 16:34:00,
2013-11-10 11:39:00,56.1,37.7,29.80,West,281,15.7,15.7,50,0.00,BKN,,0.00,WeatherDisplay:10.37,2013-11-10 16:39:00,
2013-11-10 11:44:00,56.3,37.9,29.79,NNW,336,14.2,14.2,50,0.00,BKN,,0.00,WeatherDisplay:10.37,2013-11-10 16:44:00,
2013-11-10 11:49:00,56.5,37.6,29.79,NW,322,15.4,15.4,49,0.00,BKN,,0.00,WeatherDisplay:10.37,2013-11-10 16:49:00,
2013-11-10 11:54:00,56.7,37.8,29.79,WNW,285,17.5,17.5,49,0.00,BKN,,0.00,WeatherDisplay:10.37,2013-11-10 16:54:00,
2013-11-10 11:59:00,56.5,38.1,29.79,NW,313,8.4,8.4,50,0.00,BKN,,0.00,WeatherDisplay:10.37,2013-11-10 16:59:00,
2013-11-10 12:04:00,56.3,37.9,29.79,WSW,239,13.8,13.8,50,0.00,SCT,,0.00,WeatherDisplay:10.37,2013-11-10 17:04:00,
2013-11-10 12:09:00,56.1,37.7,29.78,West,277,11.7,11.7,50,0.00,SCT,,0.00,WeatherDisplay:10.37,2013-11-10 17:09:00,
2013-11-10 12:14:00,55.9,38.1,29.78,NW,308,19.6,19.6,51,0.00,SCT,,0.00,WeatherDisplay:10.37,2013-11-10 17:14:00,
2013-11-10 12:19:00,55.0,38.7,29.79,West,263,25.7,25.7,54,0.00,SCT,,0.00,WeatherDisplay:10.37,2013-11-10 17:19:00,
2013-11-10 12:24:00,54.4,40.4,29.79,West,260,20.7,20.7,59,0.00,SCT,,0.00,WeatherDisplay:10.37,2013-11-10 17:24:00,
2013-11-10 12:29:00,53.3,42.3,29.80,North,349,8.0,8.0,66,0.01,RA,,0.01,WeatherDisplay:10.37,2013-11-10 17:29:00,
2013-11-10 12:34:00,51.8,42.7,29.80,NW,316,4.6,4.6,71,0.02,RA,,0.02,WeatherDisplay:10.37,2013-11-10 17:34:00,
2013-11-10 12:39:00,50.5,42.9,29.82,NW,322,8.5,8.5,75,0.02,RA,,0.02,WeatherDisplay:10.37,2013-11-10 17:39:00,
2013-11-10 12:44:00,49.5,42.6,29.82,NW,315,14.5,14.5,77,0.02,SCT,,0.02,WeatherDisplay:10.37,2013-11-10 17:44:00,
2013-11-10 12:49:00,48.2,42.4,29.82,NE,51,11.5,11.5,80,0.02,SCT,,0.02,WeatherDisplay:10.37,2013-11-10 17:49:00,
2013-11-10 12:54:00,47.5,42.0,29.82,West,265,5.8,5.8,81,0.02,SCT,,0.02,WeatherDisplay:10.37,2013-11-10 17:54:00,
2013-11-10 12:59:00,47.2,42.0,29.83,North,354,5.2,5.2,82,0.02,SCT,,0.02,WeatherDisplay:10.37,2013-11-10 17:59:00,
2013-11-10 13:04:00,46.8,41.9,29.83,NNE,32,6.2,6.2,83,0.02,OVC,,0.02,WeatherDisplay:10.37,2013-11-10 18:04:00,
2013-11-10 13:09:00,46.5,42.0,29.84,East,97,5.8,5.8,84,0.02,OVC,,0.02,WeatherDisplay:10.37,2013-11-10 18:09:00,
2013-11-10 13:14:00,46.1,41.6,29.84,WNW,294,11.5,11.5,84,0.02,OVC,,0.02,WeatherDisplay:10.37,2013-11-10 18:14:00,
2013-11-10 13:19:00,46.1,41.3,29.84,NNW,335,10.4,10.4,83,0.02,OVC,,0.02,WeatherDisplay:10.37,2013-11-10 18:19:00,
2013-11-10 13:24:00,46.0,41.5,29.84,NW,318,5.9,5.9,84,0.02,OVC,,0.02,WeatherDisplay:10.37,2013-11-10 18:24:00,
2013-11-10 13:29:00,45.9,41.4,29.84,West,274,6.9,6.9,84,0.02,RA,,0.03,WeatherDisplay:10.37,2013-11-10 18:29:00,
2013-11-10 13:34:00,45.6,41.7,29.84,NNW,330,8.3,8.3,86,0.01,RA,,0.03,WeatherDisplay:10.37,2013-11-10 18:34:00,
2013-11-10 13:39:00,45.5,41.6,29.85,WNW,292,13.8,13.8,86,0.01,OVC,,0.03,WeatherDisplay:10.37,2013-11-10 18:39:00,
2013-11-10 13:44:00,45.2,41.0,29.85,West,272,13.8,13.8,85,0.02,RA,,0.04,WeatherDisplay:10.37,2013-11-10 18:44:00,
2013-11-10 13:49:00,45.1,41.2,29.84,WNW,287,9.8,9.8,86,0.02,RA,,0.04,WeatherDisplay:10.37,2013-11-10 18:49:00,
2013-11-10 13:54:00,44.9,41.3,29.84,WNW,298,11.5,11.5,87,0.02,OVC,,0.04,WeatherDisplay:10.37,2013-11-10 18:54:00,
2013-11-10 13:59:00,44.8,41.5,29.84,WNW,294,10.5,10.5,88,0.02,OVC,,0.04,WeatherDisplay:10.37,2013-11-10 18:59:00,
2013-11-10 14:04:00,44.5,41.2,29.84,WSW,257,7.4,7.4,88,0.02,-RA,,0.04,WeatherDisplay:10.37,2013-11-10 19:04:00,
2013-11-10 14:09:00,44.6,41.6,29.84,West,272,8.1,8.1,89,0.02,-RA,,0.04,WeatherDisplay:10.37,2013-11-10 19:09:00,
2013-11-10 14:14:00,44.5,41.2,29.84,WNW,282,6.7,6.7,88,0.03,-RA,,0.05,WeatherDisplay:10.37,2013-11-10 19:14:00,
2013-11-10 14:19:00,44.4,41.1,29.84,WNW,282,9.6,9.6,88,0.03,-RA,,0.05,WeatherDisplay:10.37,2013-11-10 19:19:00,
2013-11-10 14:24:00,44.5,41.2,29.84,WSW,246,6.9,6.9,88,0.03,-RA,,0.05,WeatherDisplay:10.37,2013-11-10 19:24:00,
2013-11-10 14:29:00,44.5,41.2,29.84,WNW,288,9.2,9.2,88,0.02,-RA,,0.05,WeatherDisplay:10.37,2013-11-10 19:29:00,
2013-11-10 14:34:00,44.6,41.0,29.84,West,278,7.5,7.5,87,0.02,-RA,,0.05,WeatherDisplay:10.37,2013-11-10 19:34:00,
2013-11-10 14:40:00,44.8,40.9,29.84,West,267,8.1,8.1,86,0.02,-RA,,0.05,WeatherDisplay:10.37,2013-11-10 19:40:00,
2013-11-10 14:45:00,44.9,41.0,29.84,West,278,12.0,12.0,86,0.01,-RA,,0.05,WeatherDisplay:10.37,2013-11-10 19:45:00,
2013-11-10 14:50:00,44.9,40.4,29.84,WNW,282,9.2,9.2,84,0.01,-RA,,0.05,WeatherDisplay:10.37,2013-11-10 19:50:00,
2013-11-10 14:55:00,45.3,40.2,29.84,NW,315,8.3,8.3,82,0.01,-RA,,0.05,WeatherDisplay:10.37,2013-11-10 19:55:00,
2013-11-10 15:00:00,45.3,40.2,29.84,WSW,256,9.3,9.3,82,0.01,-RA,,0.05,WeatherDisplay:10.37,2013-11-10 20:00:00,
2013-11-10 15:05:00,45.3,39.5,29.84,WNW,291,9.3,9.3,80,0.01,OVC,,0.05,WeatherDisplay:10.37,2013-11-10 20:05:00,
2013-11-10 15:10:00,45.4,39.6,29.84,NW,304,9.7,9.7,80,0.01,OVC,,0.05,WeatherDisplay:10.37,2013-11-10 20:10:00,
2013-11-10 15:15:00,45.5,38.7,29.85,WNW,299,14.7,14.7,77,0.00,OVC,,0.05,WeatherDisplay:10.37,2013-11-10 20:15:00,
2013-11-10 15:20:00,45.8,38.7,29.85,West,277,15.4,15.4,76,0.00,OVC,,0.05,WeatherDisplay:10.37,2013-11-10 20:20:00,
2013-11-10 15:25:00,46.1,39.0,29.85,West,275,11.5,11.5,76,0.00,OVC,,0.05,WeatherDisplay:10.37,2013-11-10 20:25:00,
2013-11-10 15:30:00,46.2,39.1,29.85,WNW,295,11.5,11.5,76,0.00,OVC,,0.05,WeatherDisplay:10.37,2013-11-10 20:30:00,
2013-11-10 15:35:00,46.1,39.0,29.85,WNW,292,7.5,7.5,76,0.00,OVC,,0.05,WeatherDisplay:10.37,2013-11-10 20:35:00,
2013-11-10 15:40:00,46.3,38.5,29.85,West,274,13.8,13.8,74,0.00,OVC,,0.05,WeatherDisplay:10.37,2013-11-10 20:40:00,
2013-11-10 15:45:00,46.4,38.3,29.85,WNW,284,9.2,9.2,73,0.00,OVC,,0.05,WeatherDisplay:10.37,2013-11-10 20:45:00,
2013-11-10 15:50:00,46.5,38.7,29.85,West,261,13.8,13.8,74,0.00,OVC,,0.05,WeatherDisplay:10.37,2013-11-10 20:50:00,
2013-11-10 15:55:00,46.5,39.0,29.85,WSW,237,6.9,6.9,75,0.00,OVC,,0.05,WeatherDisplay:10.37,2013-11-10 20:55:00,
2013-11-10 16:00:00,46.2,38.4,29.86,West,275,13.6,13.6,74,0.00,OVC,,0.05,WeatherDisplay:10.37,2013-11-10 21:00:00,
2013-11-10 16:05:00,46.1,38.7,29.86,WNW,289,10.4,10.4,75,0.00,OVC,,0.05,WeatherDisplay:10.37,2013-11-10 21:05:00,
2013-11-10 16:10:00,46.2,38.4,29.87,SW,222,15.2,15.2,74,0.00,OVC,,0.05,WeatherDisplay:10.37,2013-11-10 21:10:00,
2013-11-10 16:15:00,46.3,38.5,29.86,WSW,248,13.8,13.8,74,0.00,OVC,,0.05,WeatherDisplay:10.37,2013-11-10 21:15:00,
2013-11-10 16:20:00,46.2,38.4,29.87,West,278,12.7,12.7,74,0.00,OVC,,0.05,WeatherDisplay:10.37,2013-11-10 21:20:00,
2013-11-10 16:25:00,46.2,38.4,29.86,WSW,237,9.2,9.2,74,0.00,OVC,,0.05,WeatherDisplay:10.37,2013-11-10 21:25:00,
2013-11-10 16:30:00,46.1,38.3,29.87,WNW,298,12.0,12.0,74,0.00,OVC,,0.05,WeatherDisplay:10.37,2013-11-10 21:30:00,
2013-11-10 16:35:00,45.9,38.1,29.87,WSW,247,13.9,13.9,74,0.00,OVC,,0.05,WeatherDisplay:10.37,2013-11-10 21:35:00,
2013-11-10 16:40:00,45.9,38.1,29.87,WSW,253,10.1,10.1,74,0.00,OVC,,0.05,WeatherDisplay:10.37,2013-11-10 21:40:00,
2013-11-10 16:45:00,45.8,38.0,29.88,West,280,13.8,13.8,74,0.00,OVC,,0.05,WeatherDisplay:10.37,2013-11-10 21:45:00,
2013-11-10 16:50:00,45.9,38.1,29.88,West,278,12.2,12.2,74,0.00,OVC,,0.05,WeatherDisplay:10.37,2013-11-10 21:50:00,
2013-11-10 16:55:00,45.9,38.5,29.88,WSW,240,15.0,15.0,75,0.00,OVC,,0.05,WeatherDisplay:10.37,2013-11-10 21:55:00,
2013-11-10 17:00:00,46.0,37.9,29.88,WNW,295,8.2,8.2,73,0.00,OVC,,0.05,WeatherDisplay:10.37,2013-11-10 22:00:00,
2013-11-10 17:05:00,46.2,38.1,29.88,WSW,248,11.5,11.5,73,0.00,CLR,,0.05,WeatherDisplay:10.37,2013-11-10 22:05:00,
2013-11-10 17:10:00,46.2,37.7,29.89,WNW,302,3.6,3.6,72,0.00,CLR,,0.05,WeatherDisplay:10.37,2013-11-10 22:10:00,
2013-11-10 17:15:00,46.4,37.9,29.89,WNW,296,5.8,5.8,72,0.00,CLR,,0.05,WeatherDisplay:10.37,2013-11-10 22:15:00,
2013-11-10 17:20:00,46.3,37.8,29.89,WNW,287,11.7,11.7,72,0.00,CLR,,0.05,WeatherDisplay:10.37,2013-11-10 22:20:00,
2013-11-10 17:25:00,46.2,37.0,29.89,WSW,256,10.6,10.6,70,0.00,CLR,,0.05,WeatherDisplay:10.37,2013-11-10 22:25:00,
2013-11-10 17:30:00,46.2,37.0,29.90,West,264,12.7,12.7,70,0.00,CLR,,0.05,WeatherDisplay:10.37,2013-11-10 22:30:00,
2013-11-10 17:35:00,46.1,36.5,29.90,WNW,296,9.6,9.6,69,0.00,CLR,,0.05,WeatherDisplay:10.37,2013-11-10 22:35:00,
2013-11-10 17:40:00,45.9,36.7,29.90,NW,309,14.0,14.0,70,0.00,CLR,,0.05,WeatherDisplay:10.37,2013-11-10 22:40:00,
2013-11-10 17:46:00,46.1,36.2,29.91,West,272,12.7,12.7,68,0.00,CLR,,0.05,WeatherDisplay:10.37,2013-11-10 22:46:00,
2013-11-10 17:51:00,46.1,36.2,29.91,West,281,12.2,12.2,68,0.00,CLR,,0.05,WeatherDisplay:10.37,2013-11-10 22:51:00,
2013-11-10 17:56:00,46.3,36.7,29.91,WSW,257,7.4,7.4,69,0.00,CLR,,0.05,WeatherDisplay:10.37,2013-11-10 22:56:00,
2013-11-10 18:01:00,46.2,36.6,29.91,South,174,4.6,4.6,69,0.00,SCT,,0.05,WeatherDisplay:10.37,2013-11-10 23:01:00,
2013-11-10 18:06:00,46.0,36.4,29.92,West,261,11.5,11.5,69,0.00,SCT,,0.05,WeatherDisplay:10.37,2013-11-10 23:06:00,
2013-11-10 18:11:00,45.8,36.2,29.92,West,275,1.6,1.6,69,0.00,SCT,,0.05,WeatherDisplay:10.37,2013-11-10 23:11:00,
2013-11-10 18:16:00,45.8,36.2,29.92,WNW,288,13.9,13.9,69,0.00,SCT,,0.05,WeatherDisplay:10.37,2013-11-10 23:16:00,
2013-11-10 18:21:00,45.8,35.9,29.93,West,260,10.3,10.3,68,0.00,SCT,,0.05,WeatherDisplay:10.37,2013-11-10 23:21:00,
2013-11-10 18:26:00,46.1,35.4,29.93,WSW,250,11.5,11.5,66,0.00,SCT,,0.05,WeatherDisplay:10.37,2013-11-10 23:26:00,
2013-11-10 18:31:00,46.2,35.9,29.93,West,263,8.9,8.9,67,0.00,SCT,,0.05,WeatherDisplay:10.37,2013-11-10 23:31:00,
2013-11-10 18:36:00,46.2,36.3,29.93,West,281,15.6,15.6,68,0.00,SCT,,0.05,WeatherDisplay:10.37,2013-11-10 23:36:00,
2013-11-10 18:41:00,46.1,36.2,29.93,West,268,13.3,13.3,68,0.00,SCT,,0.05,WeatherDisplay:10.37,2013-11-10 23:41:00,
2013-11-10 18:46:00,46.1,36.9,29.93,West,281,9.2,9.2,70,0.00,SCT,,0.05,WeatherDisplay:10.37,2013-11-10 23:46:00,
2013-11-10 18:51:00,46.1,36.5,29.93,WNW,301,10.4,10.4,69,0.00,SCT,,0.05,WeatherDisplay:10.37,2013-11-10 23:51:00,
2013-11-10 18:56:00,45.9,36.7,29.93,West,264,14.5,14.5,70,0.00,SCT,,0.05,WeatherDisplay:10.37,2013-11-10 23:56:00,
2013-11-10 19:01:00,45.8,36.2,29.93,WSW,257,16.1,16.1,69,0.00,SCT,,0.05,WeatherDisplay:10.37,2013-11-11 00:01:00,
2013-11-10 19:06:00,45.9,36.3,29.92,West,274,12.7,12.7,69,0.00,BKN,,0.05,WeatherDisplay:10.37,2013-11-11 00:06:00,
2013-11-10 19:11:00,45.9,36.3,29.93,WNW,292,12.1,12.1,69,0.00,BKN,,0.05,WeatherDisplay:10.37,2013-11-11 00:11:00,
2013-11-10 19:16:00,45.7,36.1,29.93,WNW,292,16.4,16.4,69,0.00,BKN,,0.05,WeatherDisplay:10.37,2013-11-11 00:16:00,
2013-11-10 19:21:00,45.7,36.9,29.93,WNW,289,18.4,18.4,71,0.00,BKN,,0.05,WeatherDisplay:10.37,2013-11-11 00:21:00,
2013-11-10 19:26:00,45.6,36.0,29.93,West,267,14.0,14.0,69,0.00,BKN,,0.05,WeatherDisplay:10.37,2013-11-11 00:26:00,
2013-11-10 19:31:00,45.7,36.1,29.93,WSW,254,13.2,13.2,69,0.00,BKN,,0.05,WeatherDisplay:10.37,2013-11-11 00:31:00,
2013-11-10 19:36:00,45.7,36.5,29.93,West,278,16.7,16.7,70,0.00,BKN,,0.05,WeatherDisplay:10.37,2013-11-11 00:36:00,
2013-11-10 19:41:00,45.7,36.5,29.93,WSW,241,16.1,16.1,70,0.00,BKN,,0.05,WeatherDisplay:10.37,2013-11-11 00:41:00,
2013-11-10 19:47:00,45.7,36.5,29.93,West,278,18.4,18.4,70,0.00,BKN,,0.05,WeatherDisplay:10.37,2013-11-11 00:47:00,
2013-11-10 19:52:00,45.6,36.4,29.93,West,267,15.0,15.0,70,0.00,BKN,,0.05,WeatherDisplay:10.37,2013-11-11 00:52:00,
2013-11-10 19:57:00,45.5,36.3,29.93,WSW,247,12.6,12.6,70,0.00,BKN,,0.05,WeatherDisplay:10.37,2013-11-11 00:57:00,
2013-11-10 20:02:00,45.6,36.4,29.93,West,277,16.1,16.1,70,0.00,OVC,,0.05,WeatherDisplay:10.37,2013-11-11 01:02:00,
2013-11-10 20:07:00,45.4,36.6,29.93,WNW,296,11.5,11.5,71,0.00,OVC,,0.05,WeatherDisplay:10.37,2013-11-11 01:07:00,
2013-11-10 20:12:00,45.3,36.5,29.93,WSW,258,15.0,15.0,71,0.00,OVC,,0.05,WeatherDisplay:10.37,2013-11-11 01:12:00,
2013-11-10 20:17:00,45.3,36.5,29.94,WSW,248,17.6,17.6,71,0.00,OVC,,0.05,WeatherDisplay:10.37,2013-11-11 01:17:00,
2013-11-10 20:22:00,45.5,37.0,29.94,West,271,9.7,9.7,72,0.00,OVC,,0.05,WeatherDisplay:10.37,2013-11-11 01:22:00,
2013-11-10 20:27:00,45.4,36.6,29.94,WSW,241,13.8,13.8,71,0.00,OVC,,0.05,WeatherDisplay:10.37,2013-11-11 01:27:00,
2013-11-10 20:32:00,45.4,36.6,29.95,WNW,298,13.5,13.5,71,0.00,OVC,,0.05,WeatherDisplay:10.37,2013-11-11 01:32:00,
2013-11-10 20:37:00,45.4,36.2,29.94,WNW,295,21.0,21.0,70,0.00,OVC,,0.05,WeatherDisplay:10.37,2013-11-11 01:37:00,
2013-11-10 20:42:00,45.4,36.6,29.94,WNW,295,18.5,18.5,71,0.00,OVC,,0.05,WeatherDisplay:10.37,2013-11-11 01:42:00,
2013-11-10 20:47:00,45.4,36.6,29.94,NW,309,10.4,10.4,71,0.00,OVC,,0.05,WeatherDisplay:10.37,2013-11-11 01:47:00,
2013-11-10 20:52:00,45.2,36.4,29.94,West,272,15.1,15.1,71,0.00,OVC,,0.05,WeatherDisplay:10.37,2013-11-11 01:52:00,
2013-11-10 20:57:00,45.0,36.2,29.94,WNW,295,13.8,13.8,71,0.00,OVC,,0.05,WeatherDisplay:10.37,2013-11-11 01:57:00,
2013-11-10 21:02:00,44.8,36.0,29.95,West,261,20.0,20.0,71,0.00,BKN,,0.05,WeatherDisplay:10.37,2013-11-11 02:02:00,
2013-11-10 21:07:00,44.8,36.0,29.95,West,274,19.0,19.0,71,0.00,BKN,,0.05,WeatherDisplay:10.37,2013-11-11 02:07:00,
2013-11-10 21:12:00,45.1,36.3,29.95,WNW,291,8.6,8.6,71,0.00,BKN,,0.05,WeatherDisplay:10.37,2013-11-11 02:12:00,
2013-11-10 21:17:00,44.9,35.7,29.95,NNW,330,17.0,17.0,70,0.00,BKN,,0.05,WeatherDisplay:10.37,2013-11-11 02:17:00,
2013-11-10 21:22:00,45.1,35.6,29.95,WNW,296,20.7,20.7,69,0.00,BKN,,0.05,WeatherDisplay:10.37,2013-11-11 02:22:00,
2013-11-10 21:27:00,44.9,35.4,29.95,SW,236,19.2,19.2,69,0.00,BKN,,0.05,WeatherDisplay:10.37,2013-11-11 02:27:00,
2013-11-10 21:32:00,44.9,34.6,29.95,WNW,282,16.1,16.1,67,0.00,BKN,,0.05,WeatherDisplay:10.37,2013-11-11 02:32:00,
2013-11-10 21:37:00,45.2,34.9,29.96,WNW,292,12.7,12.7,67,0.00,BKN,,0.05,WeatherDisplay:10.37,2013-11-11 02:37:00,
2013-11-10 21:42:00,45.3,34.3,29.96,WNW,292,20.5,20.5,65,0.00,BKN,,0.05,WeatherDisplay:10.37,2013-11-11 02:42:00,
2013-11-10 21:47:00,45.5,34.4,29.95,WNW,282,23.0,23.0,65,0.00,BKN,,0.05,WeatherDisplay:10.37,2013-11-11 02:47:00,
2013-11-10 21:52:00,45.6,34.2,29.95,West,261,16.1,16.1,64,0.00,BKN,,0.05,WeatherDisplay:10.37,2013-11-11 02:52:00,
2013-11-10 21:57:00,45.9,34.8,29.96,WNW,284,15.0,15.0,65,0.00,BKN,,0.05,WeatherDisplay:10.37,2013-11-11 02:57:00,
2013-11-10 22:02:00,45.8,34.3,29.96,WSW,250,16.2,16.2,64,0.00,OVC,,0.05,WeatherDisplay:10.37,2013-11-11 03:02:00,
2013-11-10 22:07:00,45.7,33.9,29.96,WNW,289,13.8,13.8,63,0.00,OVC,,0.05,WeatherDisplay:10.37,2013-11-11 03:07:00,
2013-11-10 22:12:00,45.8,34.0,29.96,NW,323,13.8,13.8,63,0.00,OVC,,0.05,WeatherDisplay:10.37,2013-11-11 03:12:00,
2013-11-10 22:17:00,45.7,33.5,29.96,NNW,337,13.4,13.4,62,0.00,OVC,,0.05,WeatherDisplay:10.37,2013-11-11 03:17:00,
2013-11-10 22:22:00,45.6,33.8,29.97,WNW,287,17.3,17.3,63,0.00,OVC,,0.05,WeatherDisplay:10.37,2013-11-11 03:22:00,
2013-11-10 22:27:00,45.7,33.9,29.96,WSW,253,12.7,12.7,63,0.00,OVC,,0.05,WeatherDisplay:10.37,2013-11-11 03:27:00,
2013-11-10 22:32:00,45.5,33.7,29.96,West,281,13.7,13.7,63,0.00,OVC,,0.05,WeatherDisplay:10.37,2013-11-11 03:32:00,
2013-11-10 22:37:00,45.5,33.7,29.97,NE,54,17.0,17.0,63,0.00,OVC,,0.05,WeatherDisplay:10.37,2013-11-11 03:37:00,
2013-11-10 22:42:00,45.5,33.7,29.97,WSW,257,13.8,13.8,63,0.00,OVC,,0.05,WeatherDisplay:10.37,2013-11-11 03:42:00,
2013-11-10 22:47:00,45.5,34.1,29.97,NW,305,17.3,17.3,64,0.00,OVC,,0.05,WeatherDisplay:10.37,2013-11-11 03:47:00,
2013-11-10 22:52:00,45.3,33.5,29.97,NNW,329,16.1,16.1,63,0.00,OVC,,0.05,WeatherDisplay:10.37,2013-11-11 03:52:00,
2013-11-10 22:57:00,45.3,33.5,29.97,NNW,339,11.7,11.7,63,0.00,OVC,,0.05,WeatherDisplay:10.37,2013-11-11 03:57:00,
2013-11-10 23:02:00,45.4,34.0,29.97,NNW,344,13.2,13.2,64,0.00,OVC,,0.05,WeatherDisplay:10.37,2013-11-11 04:02:00,
2013-11-10 23:07:00,45.4,34.0,29.98,WNW,292,13.8,13.8,64,0.00,OVC,,0.05,WeatherDisplay:10.37,2013-11-11 04:07:00,
2013-11-10 23:12:00,45.3,33.5,29.98,WNW,292,16.1,16.1,63,0.00,OVC,,0.05,WeatherDisplay:10.37,2013-11-11 04:12:00,
2013-11-10 23:17:00,45.3,33.1,29.98,NE,35,16.5,16.5,62,0.00,OVC,,0.05,WeatherDisplay:10.37,2013-11-11 04:17:00,
2013-11-10 23:22:00,45.4,33.6,29.98,NW,325,13.5,13.5,63,0.00,OVC,,0.05,WeatherDisplay:10.37,2013-11-11 04:22:00,
2013-11-10 23:27:00,45.3,33.5,29.98,NW,312,20.7,20.7,63,0.00,OVC,,0.05,WeatherDisplay:10.37,2013-11-11 04:27:00,
2013-11-10 23:32:00,45.3,33.1,29.99,NW,316,19.7,19.7,62,0.00,OVC,,0.05,WeatherDisplay:10.37,2013-11-11 04:32:00,
2013-11-10 23:37:00,45.1,32.9,29.99,NW,306,14.0,14.0,62,0.00,OVC,,0.05,WeatherDisplay:10.37,2013-11-11 04:37:00,
2013-11-10 23:42:00,45.3,33.5,29.99,NNW,343,13.8,13.8,63,0.00,OVC,,0.05,WeatherDisplay:10.37,2013-11-11 04:42:00,
2013-11-10 23:47:00,45.0,32.8,29.99,North,360,15.0,15.0,62,0.00,OVC,,0.05,WeatherDisplay:10.37,2013-11-11 04:47:00,
2013-11-10 23:52:00,45.1,32.9,30.00,WNW,299,11.5,11.5,62,0.00,OVC,,0.05,WeatherDisplay:10.37,2013-11-11 04:52:00,
2013-11-10 23:57:00,45.0,32.8,30.00,NNE,28,7.4,7.4,62,0.00,OVC,,0.05,WeatherDisplay:10.37,2013-11-11 04:57:00,